Time;durP1;ratioP1;P1;durP2;ratioP2;P2;SDS_P1;SDS_P2;PMS_P1;PMS_P2;Temp;Humidity;BMP_temperature;BMP_pressure;BME280_temperature;BME280_humidity;BME280_pressure;Samples;Min_cycle;Max_cycle;Signal;HPM_P1;HPM_P2
2023/12/02 00:20:17;;;;;;;37.10;33.50;;;-0.70;92.90;;;;;;4147982;26;20246;-89
2023/12/02 00:34:04;;;;;;;;;;;;;;;;;;;;;
2023/12/02 00:37:18;;;;;;;;;;;;;;;;;;;;;
2023/12/02 01:16:19;;;;;;;28.23;22.53;;;-0.60;93.10;;;;;;4791125;29;20249;-91
2023/12/02 01:44:16;;;;;;;;;;;;;;;;;;;;;
2023/12/02 01:47:54;;;;;;;33.53;29.70;;;-0.70;93.40;;;;;;4823328;29;20199;-91
2023/12/02 02:16:30;;;;;;;;;;;;;;;;;;;;;
2023/12/02 02:30:15;;;;;;;;;;;;;;;;;;;;;
2023/12/02 02:33:35;;;;;;;32.37;29.13;;;-0.50;93.60;;;;;;4840772;29;20210;-91
2023/12/02 07:22:29;;;;;;;41.70;38.00;;;-0.40;91.90;;;;;;3118748;23;20334;-92
2023/12/02 09:04:18;;;;;;;42.07;38.03;;;-0.20;91.30;;;;;;4995070;28;20223;-90
2023/12/02 09:06:58;;;;;;;25.77;23.23;;;-0.20;91.30;;;;;;4978495;28;20201;-91
2023/12/02 10:53:49;;;;;;;20.17;18.17;;;-0.40;92.70;;;;;;4992995;28;20218;-89
2023/12/02 11:52:22;;;;;;;21.10;18.67;;;1.00;92.80;;;;;;4997479;28;20672;-90
2023/12/02 11:55:06;;;;;;;20.83;16.00;;;1.10;92.70;;;;;;4980979;28;20174;-91
2023/12/02 12:11:30;;;;;;;18.80;16.93;;;1.10;90.80;;;;;;5002612;28;20221;-89
2023/12/02 12:40:45;;;;;;;30.10;27.10;;;1.10;90.20;;;;;;5049908;23;20633;-88
2023/12/02 12:43:12;;;;;;;30.73;28.07;;;1.10;90.20;;;;;;4997569;28;20186;-89
2023/12/02 13:00:03;;;;;;;31.80;29.10;;;1.10;89.40;;;;;;5517069;23;20237;-92
2023/12/02 13:03:30;;;;;;;30.80;28.17;;;1.00;89.40;;;;;;4983738;28;20606;-89
2023/12/02 13:09:32;;;;;;;31.47;28.77;;;0.90;89.00;;;;;;5572709;23;20282;-89
2023/12/02 13:12:38;;;;;;;31.23;28.23;;;0.80;89.20;;;;;;4997858;28;20680;-90
2023/12/02 13:53:04;;;;;;;33.80;30.80;;;0.60;87.10;;;;;;4842029;29;20213;-91
2023/12/02 14:06:36;;;;;;;;;;;;;;;;;;;;;
2023/12/02 14:50:45;;;;;;;36.17;33.57;;;-1.70;84.90;;;;;;4992758;28;20232;-91
2023/12/02 14:53:56;;;;;;;22.27;20.47;;;-1.70;85.40;;;;;;4976690;28;20168;-91
2023/12/02 15:15:07;;;;;;;27.57;25.43;;;-1.10;87.00;;;;;;4820618;29;20188;-88
2023/12/02 15:17:57;;;;;;;27.20;25.00;;;-1.10;87.10;;;;;;4847352;29;20229;-90
2023/12/02 15:46:50;;;;;;;;;;;;;;;;;;;;;
2023/12/02 15:50:16;;;;;;;;;;;;;;;;;;;;;
2023/12/02 16:07:31;;;;;;;;;;;;;;;;;;;;;
2023/12/02 16:20:57;;;;;;;23.23;20.77;;;-1.30;89.00;;;;;;4835261;29;20190;-90
2023/12/02 16:23:36;;;;;;;25.97;21.60;;;-1.40;89.40;;;;;;4850049;29;20186;-90
2023/12/02 16:26:08;;;;;;;25.40;21.83;;;-1.40;89.70;;;;;;4985955;28;20189;-90
2023/12/02 16:28:52;;;;;;;25.07;21.43;;;-1.30;90.00;;;;;;4998868;28;20693;-90
2023/12/02 16:31:59;;;;;;;22.93;19.43;;;-1.20;90.20;;;;;;4998654;28;20207;-90
2023/12/02 16:34:34;;;;;;;22.30;19.90;;;-1.10;90.20;;;;;;4996211;28;20190;-90
2023/12/02 16:37:14;;;;;;;23.97;21.70;;;-1.10;90.30;;;;;;4998287;28;20188;-91
2023/12/02 16:39:41;;;;;;;26.43;23.97;;;-1.10;90.30;;;;;;4998078;28;20227;-90
2023/12/02 16:42:28;;;;;;;27.50;24.70;;;-1.20;90.10;;;;;;4998682;28;20187;-90
2023/12/02 16:48:07;;;;;;;27.47;24.57;;;-1.60;90.80;;;;;;5009088;28;20212;-90
2023/12/02 16:51:12;;;;;;;;;;;;;;;;;;;;;
2023/12/02 16:53:55;;;;;;;28.03;24.67;;;-1.50;91.40;;;;;;5016486;28;20172;-90
2023/12/02 16:56:44;;;;;;;25.20;22.00;;;-1.30;91.60;;;;;;5016311;28;20541;-90
2023/12/02 16:59:56;;;;;;;23.30;20.90;;;-1.20;91.60;;;;;;4998182;28;20287;-90
2023/12/02 17:02:52;;;;;;;29.27;23.30;;;-1.10;91.70;;;;;;4979389;28;20184;-90
2023/12/02 17:06:17;;;;;;;26.17;23.33;;;-1.00;91.80;;;;;;4918814;29;20746;-90
2023/12/02 17:08:28;;;;;;;24.83;22.20;;;-1.00;91.90;;;;;;5007516;28;20271;-90
2023/12/02 17:11:17;;;;;;;26.27;22.57;;;-1.00;91.90;;;;;;4998327;28;20180;-91
2023/12/02 17:14:09;;;;;;;24.77;21.07;;;-1.10;92.10;;;;;;4998766;28;20615;-90
2023/12/02 17:16:49;;;;;;;21.80;18.97;;;-1.10;92.30;;;;;;5015476;28;20207;-90
2023/12/02 17:22:31;;;;;;;23.90;21.53;;;-1.00;92.30;;;;;;5015961;28;20572;-90
2023/12/02 17:25:17;;;;;;;26.17;23.67;;;-0.90;92.30;;;;;;4997669;28;20180;-91
2023/12/02 17:28:02;;;;;;;27.50;24.80;;;-1.00;91.90;;;;;;4977916;28;20208;-89
2023/12/02 17:30:36;;;;;;;27.67;25.17;;;-0.90;92.00;;;;;;4998338;28;20658;-91
2023/12/02 17:33:25;;;;;;;25.43;23.07;;;-1.00;91.50;;;;;;4997946;28;20607;-89
2023/12/02 17:36:21;;;;;;;26.13;23.63;;;-1.20;91.30;;;;;;4997136;28;20186;-89
2023/12/02 17:39:20;;;;;;;27.50;24.73;;;-1.20;91.30;;;;;;4995956;28;20222;-89
2023/12/02 17:42:01;;;;;;;65.60;25.13;;;-1.10;91.30;;;;;;4992900;28;20188;-90
2023/12/02 17:44:29;;;;;;;152.90;25.53;;;-1.20;91.00;;;;;;4997730;28;20292;-90
2023/12/02 17:47:10;;;;;;;223.67;29.40;;;-1.20;90.90;;;;;;5014792;28;20215;-89
2023/12/02 17:49:41;;;;;;;60.07;27.17;;;-1.20;90.80;;;;;;4997419;28;20211;-89
2023/12/02 17:52:20;;;;;;;63.60;28.88;;;-1.10;90.70;;;;;;4997256;28;20426;-90
2023/12/02 17:54:46;;;;;;;203.90;33.37;;;-1.20;90.10;;;;;;5015406;28;20179;-89
2023/12/02 18:14:03;;;;;;;28.43;25.27;;;-1.60;91.00;;;;;;4915083;29;20269;-88
2023/12/02 18:20:33;;;;;;;32.13;28.40;;;-1.30;91.40;;;;;;4878316;29;20220;-90
2023/12/02 18:23:30;;;;;;;30.30;27.40;;;-1.30;91.40;;;;;;4862236;29;20633;-90
2023/12/02 18:26:01;;;;;;;25.83;23.13;;;-1.20;91.40;;;;;;4989232;28;20180;-90
2023/12/02 18:28:29;;;;;;;28.43;25.33;;;-1.20;91.40;;;;;;4977776;28;20197;-90
2023/12/02 18:31:25;;;;;;;31.57;28.40;;;-1.10;91.30;;;;;;4977626;28;20662;-89
2023/12/02 18:33:51;;;;;;;32.77;29.47;;;-1.10;91.30;;;;;;4961087;28;20192;-90
2023/12/02 18:36:22;;;;;;;33.97;30.47;;;-1.10;91.20;;;;;;4976781;28;20200;-89
2023/12/02 18:38:50;;;;;;;29.30;26.03;;;-1.00;91.20;;;;;;4977515;28;20219;-89
2023/12/02 18:41:22;;;;;;;32.53;26.63;;;-1.10;91.10;;;;;;4976874;28;20672;-89
2023/12/02 18:51:36;;;;;;;;;;;;;;;;;;;;;
2023/12/02 19:23:47;;;;;;;;;;;;;;;;;;;;;
2023/12/02 19:58:13;;;;;;;;;;;;;;;;;;;;;
2023/12/02 20:03:30;;;;;;;43.13;23.23;;;-1.60;94.20;;;;;;4918905;29;20187;-90
2023/12/02 20:06:01;;;;;;;53.73;25.20;;;-1.60;94.40;;;;;;4937639;29;20286;-89
2023/12/02 20:12:57;;;;;;;68.60;26.70;;;-1.60;94.50;;;;;;4999620;28;20193;-90
2023/12/02 20:16:17;;;;;;;50.80;26.63;;;-1.60;94.70;;;;;;4995068;28;20634;-90
2023/12/02 20:30:26;;;;;;;;;;;;;;;;;;;;;
2023/12/02 20:43:48;;;;;;;35.83;22.23;;;-1.60;95.30;;;;;;4861169;29;20280;-90
2023/12/02 20:46:42;;;;;;;42.83;23.93;;;-1.50;95.30;;;;;;4861641;29;20206;-90
2023/12/02 20:49:16;;;;;;;57.03;25.53;;;-1.40;95.30;;;;;;4861195;29;20215;-90
2023/12/02 20:52:10;;;;;;;50.10;26.23;;;-1.50;95.20;;;;;;4949021;28;20282;-90
2023/12/02 21:57:15;;;;;;;38.43;27.43;;;-0.90;95.10;;;;;;3248189;26;20224;-91
2023/12/02 21:59:55;;;;;;;35.33;25.03;;;-0.90;95.10;;;;;;4992890;28;20245;-92
2023/12/02 22:03:15;;;;;;;36.37;29.30;;;-0.90;95.10;;;;;;4978050;28;20224;-91
2023/12/02 22:05:59;;;;;;;40.60;31.37;;;-0.80;95.10;;;;;;4978890;28;20176;-92
2023/12/02 22:08:50;;;;;;;41.37;27.60;;;-0.90;95.00;;;;;;4995145;28;20207;-92
2023/12/02 22:11:43;;;;;;;41.67;28.13;;;-0.90;95.00;;;;;;4975379;28;20188;-90
2023/12/02 22:14:38;;;;;;;52.07;35.20;;;-1.00;95.00;;;;;;4978347;28;20643;-91
2023/12/02 22:17:20;;;;;;;48.80;32.80;;;-1.10;95.00;;;;;;4965989;28;20239;-90
2023/12/02 22:20:05;;;;;;;41.47;31.13;;;-1.00;95.00;;;;;;4977498;28;20249;-90
2023/12/02 22:23:10;;;;;;;40.73;27.43;;;-0.90;95.00;;;;;;4977376;28;20594;-91
2023/12/02 22:26:31;;;;;;;37.70;27.80;;;-0.80;95.00;;;;;;4976939;28;20276;-91
2023/12/02 22:29:26;;;;;;;41.57;31.33;;;-0.80;94.90;;;;;;4989066;28;20212;-91
2023/12/02 22:35:52;;;;;;;31.57;25.30;;;-0.80;94.90;;;;;;4983038;28;20730;-91
2023/12/02 22:38:39;;;;;;;31.03;24.77;;;-0.80;94.80;;;;;;4995170;28;20205;-91
2023/12/02 22:41:16;;;;;;;36.23;31.20;;;-0.70;94.80;;;;;;4995042;28;20567;-91
2023/12/02 22:43:49;;;;;;;36.57;32.33;;;-0.70;94.70;;;;;;4977772;28;20186;-91
2023/12/02 22:46:20;;;;;;;36.23;32.27;;;-0.80;94.70;;;;;;4977259;28;20180;-90
2023/12/02 22:48:53;;;;;;;34.93;27.30;;;-0.80;94.60;;;;;;4994397;28;20252;-91
2023/12/02 22:51:27;;;;;;;34.80;27.90;;;-0.80;94.40;;;;;;4976827;28;20664;-91
2023/12/02 22:53:54;;;;;;;38.27;32.23;;;-1.00;94.30;;;;;;4977119;28;20272;-91
2023/12/02 22:56:36;;;;;;;38.53;33.90;;;-1.10;94.20;;;;;;4994059;28;20274;-91
2023/12/02 22:59:11;;;;;;;45.37;40.67;;;-1.10;94.20;;;;;;4993978;28;20577;-91
2023/12/02 23:01:44;;;;;;;33.83;27.83;;;-1.00;94.30;;;;;;4977021;28;20473;-91
2023/12/02 23:04:36;;;;;;;32.23;26.77;;;-0.90;94.20;;;;;;4977655;28;20611;-91
2023/12/02 23:07:35;;;;;;;45.17;40.67;;;-0.90;94.20;;;;;;4976392;28;20662;-91
2023/12/02 23:10:11;;;;;;;44.83;40.23;;;-0.90;94.10;;;;;;4994183;28;20207;-91
2023/12/02 23:12:36;;;;;;;47.53;42.73;;;-0.90;94.00;;;;;;4977872;28;20228;-91
2023/12/02 23:15:32;;;;;;;34.50;29.50;;;-0.90;93.80;;;;;;4976292;28;20565;-91
2023/12/02 23:18:12;;;;;;;34.03;29.13;;;-1.00;93.60;;;;;;4994079;28;20281;-91
2023/12/02 23:21:06;;;;;;;46.00;41.37;;;-1.00;93.60;;;;;;4994491;28;20166;-91
2023/12/02 23:23:32;;;;;;;48.77;43.87;;;-1.00;93.50;;;;;;4977477;28;20173;-91
2023/12/02 23:26:03;;;;;;;49.03;44.17;;;-1.10;93.30;;;;;;4993860;28;20180;-90
2023/12/02 23:28:40;;;;;;;36.60;30.20;;;-1.10;93.20;;;;;;4977270;28;20264;-91
2023/12/02 23:31:09;;;;;;;38.87;31.73;;;-1.10;93.10;;;;;;4976846;28;20196;-91
2023/12/02 23:34:00;;;;;;;39.37;29.83;;;-1.10;93.00;;;;;;4976315;28;20274;-91
2023/12/02 23:36:27;;;;;;;36.83;30.10;;;-1.20;92.80;;;;;;4976206;28;20661;-91
2023/12/02 23:39:09;;;;;;;42.80;31.43;;;-1.30;92.70;;;;;;4976679;28;20255;-91
2023/12/02 23:41:40;;;;;;;47.33;33.07;;;-1.40;92.70;;;;;;4976389;28;20172;-91
2023/12/02 23:44:14;;;;;;;48.53;34.90;;;-1.40;92.60;;;;;;4976841;28;20633;-91
2023/12/02 23:46:40;;;;;;;51.37;33.93;;;-1.50;92.50;;;;;;4994091;28;20173;-91
2023/12/02 23:49:15;;;;;;;56.07;45.80;;;-1.50;92.50;;;;;;4994029;28;20201;-91
2023/12/02 23:51:40;;;;;;;55.07;45.17;;;-1.50;92.50;;;;;;4976653;28;20177;-91
2023/12/02 23:57:21;;;;;;;54.50;44.70;;;-1.50;92.60;;;;;;4992535;28;20290;-91
2023/12/02 23:59:52;;;;;;;56.43;42.47;;;-1.60;92.60;;;;;;4976059;28;20742;-91
